createdAt,value
2022-10-26T00:01:51.886Z,8.83
2022-10-26T00:04:20.015Z,8.87
2022-10-26T00:06:47.967Z,9.00
2022-10-26T00:09:15.821Z,9.60
2022-10-26T00:11:43.697Z,8.53
2022-10-26T00:14:11.562Z,6.93
2022-10-26T00:16:41.017Z,9.03
2022-10-26T00:19:08.868Z,8.37
2022-10-26T00:21:36.942Z,8.73
2022-10-26T00:24:05.211Z,10.53
2022-10-26T00:26:33.232Z,11.43
2022-10-26T00:29:01.142Z,9.40
2022-10-26T00:31:29.084Z,8.30
2022-10-26T00:33:59.224Z,9.40
2022-10-26T00:36:27.699Z,8.77
2022-10-26T00:38:57.486Z,8.07
2022-10-26T00:41:27.561Z,8.33
2022-10-26T00:43:55.709Z,7.30
2022-10-26T00:46:27.126Z,7.43
2022-10-26T00:49:01.676Z,8.03
2022-10-26T00:51:33.615Z,10.03
2022-10-26T00:54:03.936Z,7.87
2022-10-26T00:56:33.332Z,7.23
2022-10-26T00:59:04.270Z,8.67
2022-10-26T01:01:34.652Z,7.83
2022-10-26T01:04:06.157Z,10.87
2022-10-26T01:06:36.359Z,8.40
2022-10-26T01:09:04.759Z,6.33
2022-10-26T01:11:32.842Z,6.63
2022-10-26T01:14:02.684Z,7.73
2022-10-26T01:16:51.014Z,8.07
2022-10-26T01:19:58.263Z,8.43
2022-10-26T01:22:34.880Z,7.97
2022-10-26T01:25:12.868Z,6.40
2022-10-26T01:27:42.151Z,7.73
2022-10-26T01:30:36.356Z,7.40
2022-10-26T01:33:16.944Z,6.37
2022-10-26T01:36:01.271Z,7.80
2022-10-26T01:38:35.339Z,8.37
2022-10-26T01:41:09.428Z,9.07
2022-10-26T01:43:41.048Z,9.43
2022-10-26T01:46:12.295Z,6.43
2022-10-26T01:48:42.456Z,8.13
2022-10-26T01:51:12.166Z,7.60
2022-10-26T01:53:45.507Z,7.47
2022-10-26T01:56:19.171Z,9.80
2022-10-26T01:59:12.222Z,9.77
2022-10-26T02:02:04.298Z,11.20
2022-10-26T02:04:43.283Z,6.70
2022-10-26T02:07:19.972Z,8.43
2022-10-26T02:10:00.726Z,11.20
2022-10-26T02:12:38.053Z,10.23
2022-10-26T02:15:09.533Z,9.47
2022-10-26T02:17:47.385Z,10.77
2022-10-26T02:20:22.711Z,8.57
2022-10-26T02:22:52.761Z,12.80
2022-10-26T02:25:24.911Z,9.43
2022-10-26T02:27:57.480Z,10.17
2022-10-26T02:30:25.912Z,9.03
2022-10-26T02:32:57.554Z,8.40
2022-10-26T02:35:29.814Z,8.93
2022-10-26T02:38:00.555Z,9.30
2022-10-26T02:40:30.236Z,9.47
2022-10-26T02:43:02.272Z,7.60
2022-10-26T02:45:35.622Z,8.97
2022-10-26T02:48:05.544Z,9.13
2022-10-26T02:50:39.452Z,7.77
2022-10-26T02:53:13.345Z,10.83
2022-10-26T02:55:47.524Z,9.07
2022-10-26T02:58:20.816Z,9.00
2022-10-26T03:00:48.818Z,8.93
2022-10-26T03:03:19.816Z,6.93
2022-10-26T03:05:47.730Z,10.60
2022-10-26T03:08:15.672Z,8.17
2022-10-26T03:10:45.342Z,9.10
2022-10-26T03:13:14.167Z,12.25
2022-10-26T03:15:42.492Z,11.07
2022-10-26T03:18:10.355Z,10.83
2022-10-26T03:20:39.609Z,8.50
2022-10-26T03:23:07.467Z,12.10
2022-10-26T03:25:35.703Z,11.37
2022-10-26T03:28:05.551Z,8.37
2022-10-26T03:30:33.440Z,10.00
2022-10-26T03:33:01.376Z,7.80
2022-10-26T03:35:29.276Z,8.73
2022-10-26T03:37:58.573Z,11.33
2022-10-26T03:40:26.402Z,9.00
2022-10-26T03:42:54.312Z,7.57
2022-10-26T03:45:22.226Z,8.47
2022-10-26T03:47:50.996Z,7.97
2022-10-26T03:50:21.468Z,9.93
2022-10-26T03:52:50.495Z,7.63
2022-10-26T03:55:20.355Z,9.27
2022-10-26T03:57:48.280Z,7.17
2022-10-26T04:00:18.367Z,9.63
2022-10-26T04:02:48.606Z,7.00
2022-10-26T04:05:17.009Z,7.70
2022-10-26T04:07:45.063Z,5.83
2022-10-26T04:10:12.956Z,6.77
2022-10-26T04:12:42.100Z,6.27
2022-10-26T04:15:10.760Z,7.23
2022-10-26T04:17:38.735Z,5.77
2022-10-26T04:20:07.706Z,8.60
2022-10-26T04:22:36.473Z,10.17
2022-10-26T04:25:04.497Z,7.67
2022-10-26T04:27:32.500Z,7.10
2022-10-26T04:30:01.728Z,7.67
2022-10-26T04:32:29.690Z,6.73
2022-10-26T04:34:57.567Z,9.40
2022-10-26T04:37:25.520Z,8.13
2022-10-26T04:39:53.401Z,8.03
2022-10-26T04:42:21.328Z,6.30
2022-10-26T04:44:49.711Z,7.37
2022-10-26T04:47:18.907Z,8.03
2022-10-26T04:49:46.755Z,7.37
2022-10-26T04:52:14.666Z,11.73
2022-10-26T04:54:42.498Z,7.63
2022-10-26T04:57:10.323Z,7.87
2022-10-26T04:59:38.244Z,6.53
2022-10-26T05:02:06.279Z,9.60
2022-10-26T05:04:35.578Z,8.37
2022-10-26T05:07:03.458Z,7.77
2022-10-26T05:09:31.359Z,7.43
2022-10-26T05:12:02.032Z,6.00
2022-10-26T05:14:29.965Z,7.90
2022-10-26T05:16:57.910Z,9.23
2022-10-26T05:19:25.776Z,8.30
2022-10-26T05:21:54.970Z,6.90
2022-10-26T05:24:22.775Z,8.23
2022-10-26T05:26:50.622Z,10.80
2022-10-26T05:29:18.484Z,7.63
2022-10-26T05:31:46.391Z,9.47
2022-10-26T05:34:14.264Z,8.17
2022-10-26T05:36:42.112Z,9.67
2022-10-26T05:39:13.672Z,6.87
2022-10-26T05:41:41.582Z,11.47
2022-10-26T05:44:09.496Z,9.17
2022-10-26T05:46:37.516Z,9.53
2022-10-26T05:49:05.433Z,7.70
2022-10-26T05:51:34.257Z,8.07
2022-10-26T05:54:02.432Z,7.50
2022-10-26T05:56:38.053Z,8.10
2022-10-26T05:59:11.874Z,8.00
2022-10-26T06:01:52.801Z,8.37
2022-10-26T06:04:30.852Z,7.83
2022-10-26T06:06:59.815Z,7.43
2022-10-26T06:09:28.464Z,8.70
2022-10-26T06:11:58.479Z,9.97
2022-10-26T06:14:26.875Z,8.10
2022-10-26T06:17:05.903Z,8.47
2022-10-26T06:19:48.019Z,6.73
2022-10-26T06:22:29.408Z,8.77
2022-10-26T06:25:10.665Z,8.17
2022-10-26T06:27:47.352Z,10.50
2022-10-26T06:30:15.335Z,8.83
2022-10-26T06:32:46.855Z,11.43
2022-10-26T06:35:26.051Z,8.87
2022-10-26T06:37:55.375Z,10.97
2022-10-26T06:40:24.835Z,8.17
2022-10-26T06:42:54.580Z,7.53
2022-10-26T06:45:23.132Z,9.50
2022-10-26T06:47:58.297Z,8.73
2022-10-26T06:50:37.294Z,9.00
2022-10-26T06:53:17.784Z,8.73
2022-10-26T06:55:49.679Z,8.93
2022-10-26T06:58:20.642Z,8.23
2022-10-26T07:00:50.296Z,9.20
2022-10-26T07:03:18.698Z,9.23
2022-10-26T07:05:46.763Z,6.70
2022-10-26T07:08:14.927Z,7.27
2022-10-26T07:10:43.514Z,7.40
2022-10-26T07:13:11.951Z,7.47
2022-10-26T07:15:42.861Z,6.03
2022-10-26T07:18:11.260Z,6.40
2022-10-26T07:20:41.815Z,5.67
2022-10-26T07:23:11.894Z,8.93
2022-10-26T07:25:40.450Z,6.80
2022-10-26T07:28:10.206Z,6.90
2022-10-26T07:30:39.671Z,6.87
2022-10-26T07:33:10.955Z,6.73
2022-10-26T07:35:39.785Z,7.27
2022-10-26T07:38:08.376Z,6.47
2022-10-26T07:40:37.533Z,5.60
2022-10-26T07:43:05.466Z,8.33
2022-10-26T07:45:33.421Z,5.83
2022-10-26T07:48:01.338Z,6.50
2022-10-26T07:50:30.520Z,6.13
2022-10-26T07:52:59.708Z,13.00
2022-10-26T07:55:28.185Z,6.13
2022-10-26T07:57:58.784Z,5.90
2022-10-26T08:00:28.696Z,6.20
2022-10-26T08:02:56.729Z,5.60
2022-10-26T08:05:24.672Z,5.43
2022-10-26T08:07:53.894Z,5.73
2022-10-26T08:10:21.890Z,5.20
2022-10-26T08:12:49.837Z,4.50
2022-10-26T08:15:17.839Z,4.37
2022-10-26T08:17:45.677Z,7.93
2022-10-26T08:20:13.668Z,4.83
2022-10-26T08:22:41.511Z,5.77
2022-10-26T08:25:10.964Z,5.37
2022-10-26T08:27:38.893Z,5.03
2022-10-26T08:30:07.659Z,5.37
2022-10-26T08:32:35.607Z,6.90
2022-10-26T08:35:03.468Z,5.03
2022-10-26T08:37:31.383Z,5.30
2022-10-26T08:40:00.651Z,4.90
2022-10-26T08:42:37.392Z,5.60
2022-10-26T08:45:11.907Z,6.43
2022-10-26T08:47:46.431Z,5.37
2022-10-26T08:50:20.166Z,5.03
2022-10-26T08:52:52.005Z,5.87
2022-10-26T08:55:24.704Z,6.20
2022-10-26T08:57:55.677Z,5.23
2022-10-26T09:00:25.774Z,5.40
2022-10-26T09:02:54.451Z,5.33
2022-10-26T09:05:36.124Z,5.17
2022-10-26T09:08:11.140Z,5.83
2022-10-26T09:10:42.235Z,4.93
2022-10-26T09:13:23.783Z,5.13
2022-10-26T09:16:01.096Z,5.30
2022-10-26T09:18:40.135Z,4.97
2022-10-26T09:21:20.247Z,5.00
2022-10-26T09:24:02.227Z,5.40
2022-10-26T09:26:39.006Z,5.03
2022-10-26T09:29:14.103Z,5.30
2022-10-26T09:31:44.046Z,5.27
2022-10-26T09:34:21.488Z,4.83
2022-10-26T09:36:54.454Z,5.60
2022-10-26T09:39:30.944Z,5.53
2022-10-26T09:42:02.044Z,5.20
2022-10-26T09:44:35.923Z,8.83
2022-10-26T09:47:08.604Z,5.53
2022-10-26T09:49:43.260Z,5.67
2022-10-26T09:54:44.500Z,5.93
2022-10-26T09:57:16.754Z,6.77
2022-10-26T09:59:49.831Z,6.23
2022-10-26T10:02:37.495Z,5.33
2022-10-26T10:08:19.400Z,7.77
2022-10-26T10:10:58.694Z,4.77
2022-10-26T10:13:29.215Z,4.57
2022-10-26T10:16:06.703Z,5.63
2022-10-26T10:18:36.060Z,4.97
2022-10-26T10:21:05.775Z,4.33
2022-10-26T10:23:35.998Z,4.37
2022-10-26T10:26:11.908Z,6.43
2022-10-26T10:28:42.364Z,4.00
2022-10-26T10:31:22.526Z,4.27
2022-10-26T10:33:50.521Z,3.33
2022-10-26T10:36:21.570Z,3.23
2022-10-26T10:38:51.504Z,3.30
2022-10-26T10:41:27.627Z,3.73
2022-10-26T10:44:01.421Z,3.03
2022-10-26T10:46:30.894Z,2.30
2022-10-26T10:49:20.557Z,3.83
2022-10-26T10:51:49.340Z,3.70
2022-10-26T10:54:24.041Z,2.70
2022-10-26T10:56:54.209Z,3.20
2022-10-26T10:59:36.409Z,3.47
2022-10-26T11:02:38.731Z,4.77
2022-10-26T11:05:27.411Z,3.43
2022-10-26T11:08:02.932Z,5.27
2022-10-26T11:10:35.219Z,2.43
2022-10-26T11:13:07.143Z,2.70
2022-10-26T11:15:38.274Z,1.97
2022-10-26T11:18:14.491Z,5.47
2022-10-26T11:20:46.411Z,2.10
2022-10-26T11:23:20.765Z,2.73
2022-10-26T11:25:54.194Z,3.30
2022-10-26T11:28:29.767Z,6.77
2022-10-26T11:31:04.146Z,3.47
2022-10-26T11:33:39.175Z,2.43
2022-10-26T11:36:16.048Z,2.80
2022-10-26T11:38:57.127Z,3.10
2022-10-26T11:41:32.635Z,3.17
2022-10-26T11:44:06.551Z,2.27
2022-10-26T11:46:40.604Z,2.33
2022-10-26T11:49:16.316Z,3.70
2022-10-26T11:51:49.558Z,2.47
2022-10-26T11:54:22.618Z,2.27
2022-10-26T11:56:53.741Z,3.60
2022-10-26T11:59:24.157Z,2.93
2022-10-26T12:01:58.060Z,5.63
2022-10-26T12:04:36.563Z,2.80
2022-10-26T12:07:14.306Z,2.07
2022-10-26T12:09:44.903Z,3.23
2022-10-26T12:12:20.837Z,4.27
2022-10-26T12:14:54.134Z,2.47
2022-10-26T12:17:27.568Z,2.37
2022-10-26T12:20:01.991Z,2.10
2022-10-26T12:22:34.324Z,2.07
2022-10-26T12:25:19.968Z,4.83
2022-10-26T12:27:54.292Z,2.40
2022-10-26T12:30:29.087Z,2.03
2022-10-26T12:32:58.522Z,1.63
2022-10-26T12:35:39.905Z,2.03
2022-10-26T12:38:48.545Z,1.43
2022-10-26T12:41:22.895Z,1.83
2022-10-26T12:43:51.121Z,1.70
2022-10-26T12:46:44.965Z,1.50
2022-10-26T12:49:58.355Z,2.17
2022-10-26T12:52:49.097Z,1.67
2022-10-26T12:55:50.599Z,1.73
2022-10-26T12:59:05.289Z,2.40
2022-10-26T13:02:24.087Z,2.63
2022-10-26T13:05:29.188Z,4.97
2022-10-26T13:08:04.716Z,3.10
2022-10-26T13:10:33.168Z,3.87
2022-10-26T13:13:05.260Z,4.53
2022-10-26T13:15:39.402Z,1.87
2022-10-26T13:18:16.755Z,4.03
2022-10-26T13:20:55.151Z,2.40
2022-10-26T13:23:27.404Z,3.53
2022-10-26T13:26:08.283Z,3.40
2022-10-26T13:28:49.839Z,2.80
2022-10-26T13:31:51.289Z,2.47
2022-10-26T13:34:21.187Z,2.07
2022-10-26T13:36:54.226Z,2.27
2022-10-26T13:39:26.978Z,2.97
2022-10-26T13:41:57.975Z,3.57
2022-10-26T13:44:30.241Z,2.27
2022-10-26T13:47:02.055Z,2.47
2022-10-26T13:49:34.083Z,3.07
2022-10-26T13:52:04.580Z,1.83
2022-10-26T13:54:37.686Z,3.20
2022-10-26T13:57:16.347Z,3.37
2022-10-26T13:59:46.164Z,2.10
2022-10-26T14:02:20.373Z,3.70
2022-10-26T14:04:49.456Z,3.37
2022-10-26T14:07:23.451Z,3.77
2022-10-26T14:09:57.498Z,2.97
2022-10-26T14:12:29.099Z,2.97
2022-10-26T14:15:03.679Z,3.87
2022-10-26T14:17:31.774Z,2.00
2022-10-26T14:19:59.863Z,2.03
2022-10-26T14:22:30.341Z,3.40
2022-10-26T14:25:01.060Z,2.60
2022-10-26T14:27:33.592Z,2.77
2022-10-26T14:30:21.676Z,2.30
2022-10-26T14:32:51.154Z,2.67
2022-10-26T14:35:23.072Z,3.37
2022-10-26T14:37:53.516Z,3.27
2022-10-26T14:40:25.853Z,4.17
2022-10-26T14:42:56.556Z,4.03
2022-10-26T14:45:47.625Z,2.60
2022-10-26T14:48:26.091Z,4.30
2022-10-26T14:51:01.440Z,3.40
2022-10-26T14:53:35.049Z,2.87
2022-10-26T14:56:05.525Z,3.20
2022-10-26T14:58:35.211Z,1.63
2022-10-26T15:01:36.957Z,4.30
2022-10-26T15:04:07.562Z,3.57
2022-10-26T15:06:46.003Z,4.43
2022-10-26T15:09:38.523Z,2.90
2022-10-26T15:12:19.023Z,23.63
2022-10-26T15:14:47.549Z,3.10
2022-10-26T15:17:23.176Z,7.03
2022-10-26T15:19:53.830Z,4.20
2022-10-26T15:22:29.486Z,2.87
2022-10-26T15:25:02.161Z,3.30
2022-10-26T15:27:31.566Z,2.47
2022-10-26T15:30:19.347Z,3.97
2022-10-26T15:32:47.433Z,4.37
2022-10-26T15:35:23.853Z,2.60
2022-10-26T15:37:54.088Z,3.10
2022-10-26T15:40:23.848Z,3.67
2022-10-26T15:42:54.261Z,5.80
2022-10-26T15:45:23.930Z,5.27
2022-10-26T15:47:53.521Z,4.43
2022-10-26T15:50:23.478Z,4.57
2022-10-26T15:52:57.485Z,3.57
2022-10-26T15:55:25.518Z,4.13
2022-10-26T15:57:54.721Z,2.50
2022-10-26T16:00:22.872Z,5.80
2022-10-26T16:02:53.701Z,3.43
2022-10-26T16:05:21.643Z,4.70
2022-10-26T16:07:50.065Z,3.70
2022-10-26T16:10:22.441Z,2.90
2022-10-26T16:12:50.618Z,5.70
2022-10-26T16:15:22.581Z,3.70
2022-10-26T16:17:51.461Z,6.77
2022-10-26T16:20:22.671Z,6.50
2022-10-26T16:22:51.504Z,5.30
2022-10-26T16:25:23.065Z,4.80
2022-10-26T16:27:51.512Z,4.90
2022-10-26T16:30:29.451Z,3.40
2022-10-26T16:32:58.596Z,4.53
2022-10-26T16:35:26.473Z,4.83
2022-10-26T16:37:54.412Z,5.90
2022-10-26T16:40:22.480Z,3.83
2022-10-26T16:42:50.548Z,4.10
2022-10-26T16:45:19.996Z,7.00
2022-10-26T16:47:48.083Z,6.03
2022-10-26T16:50:16.375Z,5.37
2022-10-26T16:52:44.292Z,3.73
2022-10-26T16:55:12.264Z,5.43
2022-10-26T16:57:40.237Z,7.40
2022-10-26T17:00:09.053Z,7.87
2022-10-26T17:02:38.395Z,7.27
2022-10-26T17:05:07.454Z,7.30
2022-10-26T17:07:35.752Z,7.07
2022-10-26T17:10:04.246Z,5.90
2022-10-26T17:12:32.282Z,7.47
2022-10-26T17:15:01.409Z,6.37
2022-10-26T17:17:29.253Z,4.50
2022-10-26T17:19:59.567Z,6.67
2022-10-26T17:22:27.468Z,8.50
2022-10-26T17:24:55.374Z,7.60
2022-10-26T17:27:23.806Z,7.90
2022-10-26T17:29:51.645Z,7.07
2022-10-26T17:32:19.558Z,5.40
2022-10-26T17:34:47.387Z,6.07
2022-10-26T17:37:17.716Z,7.00
2022-10-26T17:39:45.667Z,7.80
2022-10-26T17:42:15.890Z,10.10
2022-10-26T17:44:43.800Z,6.97
2022-10-26T17:47:11.675Z,6.93
2022-10-26T17:49:39.607Z,6.53
2022-10-26T17:52:07.527Z,11.57
2022-10-26T17:54:36.758Z,7.23
2022-10-26T17:57:04.778Z,5.87
2022-10-26T17:59:32.642Z,5.30
2022-10-26T18:02:00.534Z,5.97
2022-10-26T18:04:28.527Z,4.83
2022-10-26T18:06:56.465Z,5.60
2022-10-26T18:09:24.354Z,7.07
2022-10-26T18:11:55.825Z,6.83
2022-10-26T18:14:24.038Z,6.47
2022-10-26T18:16:52.035Z,6.47
2022-10-26T18:19:20.077Z,6.77
2022-10-26T18:21:47.998Z,7.50
2022-10-26T18:24:15.953Z,6.23
2022-10-26T18:26:43.771Z,6.63
2022-10-26T18:29:13.957Z,8.37
2022-10-26T18:31:41.907Z,6.87
2022-10-26T18:34:11.272Z,6.80
2022-10-26T18:36:39.170Z,4.10
2022-10-26T18:39:07.268Z,10.80
2022-10-26T18:41:35.200Z,7.10
2022-10-26T18:44:03.093Z,5.00
2022-10-26T18:46:35.380Z,8.03
2022-10-26T18:49:05.204Z,7.07
2022-10-26T18:51:35.103Z,5.30
2022-10-26T18:54:03.420Z,8.30
2022-10-26T18:56:31.986Z,9.97
2022-10-26T18:59:01.644Z,6.10
2022-10-26T19:01:33.527Z,7.30
2022-10-26T19:04:03.650Z,6.53
2022-10-26T19:06:33.739Z,7.63
2022-10-26T19:09:02.328Z,7.30
2022-10-26T19:11:31.843Z,9.20
2022-10-26T19:14:00.228Z,6.37
2022-10-26T19:16:48.084Z,6.97
2022-10-26T19:19:18.754Z,7.77
2022-10-26T19:21:47.721Z,7.70
2022-10-26T19:24:17.357Z,5.13
2022-10-26T19:26:45.756Z,10.70
2022-10-26T19:29:15.955Z,9.60
2022-10-26T19:31:44.766Z,6.53
2022-10-26T19:34:14.497Z,5.57
2022-10-26T19:36:46.157Z,7.17
2022-10-26T19:39:15.079Z,7.30
2022-10-26T19:41:43.509Z,7.93
2022-10-26T19:44:13.036Z,7.97
2022-10-26T19:46:40.948Z,6.67
2022-10-26T19:49:08.805Z,9.93
2022-10-26T19:51:36.744Z,6.97
2022-10-26T19:54:07.408Z,8.13
2022-10-26T19:56:36.891Z,6.83
2022-10-26T19:59:05.509Z,6.80
2022-10-26T20:01:33.681Z,6.13
2022-10-26T20:04:02.723Z,7.77
2022-10-26T20:06:31.570Z,9.97
2022-10-26T20:09:02.719Z,7.67
2022-10-26T20:11:32.370Z,8.50
2022-10-26T20:14:00.452Z,9.33
2022-10-26T20:16:28.290Z,7.50
2022-10-26T20:18:56.187Z,6.50
2022-10-26T20:21:24.088Z,6.57
2022-10-26T20:23:51.937Z,9.17
2022-10-26T20:26:21.287Z,7.43
2022-10-26T20:28:51.831Z,11.20
2022-10-26T20:31:20.277Z,7.40
2022-10-26T20:33:51.520Z,9.83
2022-10-26T20:36:19.447Z,9.53
2022-10-26T20:38:47.846Z,7.57
2022-10-26T20:41:16.359Z,6.97
2022-10-26T20:43:47.802Z,7.50
2022-10-26T20:46:23.532Z,8.00
2022-10-26T20:48:52.559Z,9.33
2022-10-26T20:51:25.272Z,9.33
2022-10-26T20:54:02.450Z,6.50
2022-10-26T20:56:30.798Z,10.83
2022-10-26T20:59:01.580Z,8.13
2022-10-26T21:01:32.541Z,8.33
2022-10-26T21:04:02.732Z,8.17
2022-10-26T21:06:32.320Z,7.13
2022-10-26T21:09:00.288Z,8.33
2022-10-26T21:11:28.164Z,8.83
2022-10-26T21:13:56.092Z,8.23
2022-10-26T21:16:24.112Z,7.23
2022-10-26T21:18:53.631Z,7.27
2022-10-26T21:21:21.594Z,7.57
2022-10-26T21:23:49.508Z,5.27
2022-10-26T21:26:17.396Z,9.53
2022-10-26T21:28:46.588Z,7.57
2022-10-26T21:31:16.576Z,7.87
2022-10-26T21:33:45.127Z,6.53
2022-10-26T21:36:15.184Z,7.83
2022-10-26T21:38:44.568Z,6.30
2022-10-26T21:41:13.824Z,6.47
2022-10-26T21:43:43.346Z,7.97
2022-10-26T21:46:11.738Z,6.37
2022-10-26T21:48:40.954Z,5.10
2022-10-26T21:51:11.871Z,7.03
2022-10-26T21:53:41.352Z,7.30
2022-10-26T21:56:16.854Z,8.30
2022-10-26T21:58:47.958Z,6.20
2022-10-26T22:01:17.758Z,6.07
2022-10-26T22:03:46.136Z,4.73
2022-10-26T22:06:16.837Z,6.20
2022-10-26T22:08:46.399Z,8.27
2022-10-26T22:11:16.224Z,5.43
2022-10-26T22:13:44.389Z,5.93
2022-10-26T22:16:14.712Z,5.73
2022-10-26T22:18:44.760Z,5.53
2022-10-26T22:21:13.703Z,4.67
2022-10-26T22:23:42.696Z,8.43
2022-10-26T22:26:13.850Z,7.73
2022-10-26T22:28:43.236Z,6.00
2022-10-26T22:31:14.087Z,6.77
2022-10-26T22:33:42.196Z,5.80
2022-10-26T22:36:11.839Z,8.37
2022-10-26T22:38:40.211Z,8.53
2022-10-26T22:41:08.271Z,7.03
2022-10-26T22:43:37.668Z,9.33
2022-10-26T22:46:07.976Z,9.07
2022-10-26T22:48:37.073Z,8.17
2022-10-26T22:51:08.953Z,7.13
2022-10-26T22:53:37.181Z,8.90
2022-10-26T22:56:07.607Z,6.83
2022-10-26T22:58:37.408Z,8.47
2022-10-26T23:01:06.814Z,10.83
2022-10-26T23:03:35.121Z,6.20
2022-10-26T23:06:03.815Z,13.07
2022-10-26T23:08:31.672Z,9.50
2022-10-26T23:11:00.917Z,9.13
2022-10-26T23:13:29.367Z,8.37
2022-10-26T23:16:05.816Z,7.93
2022-10-26T23:18:34.119Z,10.13
2022-10-26T23:21:02.577Z,7.43
2022-10-26T23:23:30.483Z,8.00
2022-10-26T23:26:01.468Z,7.00
2022-10-26T23:28:29.361Z,5.33
2022-10-26T23:30:58.825Z,9.73
2022-10-26T23:33:26.813Z,7.03
2022-10-26T23:35:55.175Z,5.80
2022-10-26T23:38:23.213Z,7.90
2022-10-26T23:40:52.162Z,6.47
2022-10-26T23:43:20.465Z,6.13
2022-10-26T23:45:48.533Z,4.77
2022-10-26T23:48:19.208Z,5.80
2022-10-26T23:50:48.601Z,5.93
2022-10-26T23:53:17.923Z,7.07
2022-10-26T23:55:46.803Z,6.93
2022-10-26T23:58:15.852Z,6.20
